Terminal Aerodrome Forecast
Issued by NWS North Platte, NE

Home | Current Version | Previous Version | Text Only | Print | Product List | Glossary Off
Versions: 1 2 3 4 5 6 7 8 9 10 11 12 13 14 15 16 17 18 19 20 21 22 23 24 25 26

000
FTUS43 KLBF 250520
TAFVTN
TAF
KVTN 250520Z 2506/2606 VRB06KT P6SM FEW250
     FM251500 18011KT P6SM FEW250
     FM251700 17015G24KT P6SM FEW250
     FM260200 15011KT P6SM BKN150=

USA.gov is the U.S. government's official web portal to all federal, state and local government web resources and services.